Time;durP1;ratioP1;P1;durP2;ratioP2;P2;SDS_P1;SDS_P2;PMS_P1;PMS_P2;Temp;Humidity;BMP_temperature;BMP_pressure;BME280_temperature;BME280_humidity;BME280_pressure;Samples;Min_cycle;Max_cycle;Signal;HPM_P1;HPM_P2
2024/04/06 00:02:21;;;;;;;4.10;1.20;;;14.70;74.10;;;;;;5011147;28;20092;-66
2024/04/06 00:04:46;;;;;;;5.00;0.90;;;14.60;74.90;;;;;;5008401;28;20117;-66
2024/04/06 00:07:12;;;;;;;4.07;1.37;;;14.70;74.30;;;;;;5010499;28;20030;-66
2024/04/06 00:09:37;;;;;;;3.53;1.00;;;14.50;75.30;;;;;;5008193;28;20030;-66
2024/04/06 00:12:04;;;;;;;6.13;1.30;;;14.70;74.50;;;;;;5008284;28;20076;-66
2024/04/06 00:14:30;;;;;;;5.30;1.30;;;14.60;74.90;;;;;;5009895;28;20034;-66
2024/04/06 00:16:56;;;;;;;8.73;1.50;;;14.70;74.70;;;;;;5008495;28;20040;-66
2024/04/06 00:19:21;;;;;;;3.27;1.37;;;14.60;76.00;;;;;;5009498;28;20053;-66
2024/04/06 00:21:47;;;;;;;5.60;1.30;;;14.60;75.10;;;;;;5009188;28;20068;-66
2024/04/06 00:24:12;;;;;;;4.07;1.20;;;14.60;75.40;;;;;;5009828;28;20033;-66
2024/04/06 00:26:38;;;;;;;4.40;1.17;;;14.50;75.70;;;;;;5010006;28;20030;-66
2024/04/06 00:29:04;;;;;;;3.20;1.13;;;14.50;76.20;;;;;;5009113;28;20112;-66
2024/04/06 00:31:29;;;;;;;4.93;1.27;;;14.40;77.20;;;;;;5009494;28;20030;-66
2024/04/06 00:34:01;;;;;;;6.27;1.50;;;14.40;77.00;;;;;;5009502;28;20420;-66
2024/04/06 00:36:27;;;;;;;5.57;1.23;;;14.20;78.00;;;;;;5007713;28;20096;-66
2024/04/06 00:38:52;;;;;;;5.30;1.30;;;14.30;77.70;;;;;;5008579;28;20053;-66
2024/04/06 00:41:18;;;;;;;2.87;1.03;;;14.30;77.70;;;;;;5009879;28;20073;-66
2024/04/06 00:43:44;;;;;;;2.10;1.33;;;14.30;78.40;;;;;;5010170;28;20522;-66
2024/04/06 00:46:13;;;;;;;8.67;1.23;;;14.30;77.80;;;;;;5010087;28;20041;-66
2024/04/06 00:48:38;;;;;;;7.20;1.52;;;14.40;77.60;;;;;;5009242;28;20038;-66
2024/04/06 00:51:06;;;;;;;3.90;1.27;;;14.20;78.40;;;;;;5009119;28;20143;-66
2024/04/06 00:53:34;;;;;;;6.72;1.35;;;14.20;78.60;;;;;;5008074;28;20057;-67
2024/04/06 00:56:01;;;;;;;5.95;1.70;;;14.30;78.20;;;;;;5009428;28;20026;-66
2024/04/06 00:58:27;;;;;;;5.70;1.20;;;14.20;78.30;;;;;;5007286;28;20037;-66
2024/04/06 01:00:53;;;;;;;5.10;1.00;;;14.20;79.00;;;;;;5008902;28;20030;-65
2024/04/06 01:03:19;;;;;;;6.10;1.38;;;14.20;79.50;;;;;;5008879;28;20532;-66
2024/04/06 01:05:44;;;;;;;2.60;1.20;;;14.10;79.50;;;;;;5007138;28;20040;-66
2024/04/06 01:08:10;;;;;;;5.97;1.30;;;14.10;79.40;;;;;;5007921;28;20044;-66
2024/04/06 01:10:37;;;;;;;10.30;1.67;;;14.10;80.20;;;;;;5008677;28;20034;-66
2024/04/06 01:13:03;;;;;;;12.95;1.40;;;14.20;79.60;;;;;;5007787;28;20273;-66
2024/04/06 01:15:32;;;;;;;3.20;1.03;;;14.10;80.30;;;;;;5008720;28;20040;-66
2024/04/06 01:17:58;;;;;;;3.63;1.58;;;14.10;80.50;;;;;;5009910;28;20030;-66
2024/04/06 01:20:25;;;;;;;9.38;1.70;;;14.10;80.60;;;;;;5009695;28;20030;-66
2024/04/06 01:22:51;;;;;;;4.57;1.33;;;13.90;81.60;;;;;;5009174;28;20668;-65
2024/04/06 01:25:16;;;;;;;2.93;1.23;;;13.80;82.90;;;;;;5008818;28;20052;-65
2024/04/06 01:27:44;;;;;;;4.97;1.20;;;13.80;83.00;;;;;;5009042;28;20575;-66
2024/04/06 01:30:13;;;;;;;4.10;1.67;;;13.70;82.90;;;;;;5009323;28;20041;-66
2024/04/06 01:32:45;;;;;;;3.67;1.67;;;13.70;83.00;;;;;;5008695;28;20109;-65
2024/04/06 01:35:11;;;;;;;6.55;1.23;;;13.70;83.00;;;;;;5008687;28;20167;-66
2024/04/06 01:37:37;;;;;;;2.77;1.37;;;13.60;83.60;;;;;;5006748;28;20113;-66
2024/04/06 01:40:03;;;;;;;3.00;1.23;;;13.50;83.80;;;;;;5008567;28;20038;-66
2024/04/06 01:42:28;;;;;;;2.05;0.98;;;13.60;83.40;;;;;;5008979;28;20038;-66
2024/04/06 01:44:54;;;;;;;7.20;1.27;;;13.90;82.10;;;;;;5008897;28;20092;-66
2024/04/06 01:47:19;;;;;;;4.47;1.73;;;13.80;82.10;;;;;;5009400;28;20038;-66
2024/04/06 01:49:45;;;;;;;8.07;1.67;;;13.90;81.90;;;;;;5009209;28;20018;-66
2024/04/06 01:52:11;;;;;;;3.57;1.30;;;14.10;80.50;;;;;;4996405;28;20030;-65
2024/04/06 01:54:36;;;;;;;3.03;1.20;;;14.00;81.50;;;;;;5008801;28;20030;-66
2024/04/06 01:57:02;;;;;;;3.80;1.63;;;13.80;82.00;;;;;;5008596;28;20030;-66
2024/04/06 01:59:29;;;;;;;3.97;1.20;;;13.80;82.40;;;;;;5008761;28;20058;-66
2024/04/06 02:01:55;;;;;;;8.43;1.38;;;13.80;82.10;;;;;;5006546;28;20040;-66
2024/04/06 02:04:20;;;;;;;4.67;1.20;;;13.80;82.00;;;;;;5008344;28;20030;-66
2024/04/06 02:06:46;;;;;;;3.03;1.23;;;13.80;82.00;;;;;;5007165;28;20112;-66
2024/04/06 02:09:11;;;;;;;2.43;1.13;;;13.80;82.70;;;;;;5007861;28;20087;-66
2024/04/06 02:11:37;;;;;;;4.53;1.70;;;13.80;82.20;;;;;;5005443;28;20022;-66
2024/04/06 02:14:02;;;;;;;2.23;1.17;;;13.80;81.70;;;;;;5007482;28;20036;-66
2024/04/06 02:16:28;;;;;;;2.30;1.10;;;13.70;82.10;;;;;;5006979;28;20527;-66
2024/04/06 02:18:54;;;;;;;4.10;1.40;;;13.70;82.40;;;;;;5007473;28;20026;-66
2024/04/06 02:21:19;;;;;;;4.27;1.20;;;13.60;82.70;;;;;;5007633;28;20053;-66
2024/04/06 02:23:45;;;;;;;2.90;1.07;;;13.60;83.10;;;;;;5007134;28;20444;-66
2024/04/06 02:26:11;;;;;;;9.60;1.30;;;13.60;82.60;;;;;;5007371;28;20042;-66
2024/04/06 02:28:36;;;;;;;3.78;1.30;;;13.70;82.20;;;;;;5009911;28;20028;-66
2024/04/06 02:31:03;;;;;;;3.63;1.40;;;13.50;83.50;;;;;;5008897;28;20033;-65
2024/04/06 02:33:29;;;;;;;6.18;1.70;;;13.60;82.90;;;;;;5007611;28;20026;-66
2024/04/06 02:35:54;;;;;;;2.30;1.07;;;13.50;83.20;;;;;;5007366;28;20038;-65
2024/04/06 02:38:20;;;;;;;4.40;1.20;;;13.60;82.70;;;;;;5007579;28;20026;-65
2024/04/06 02:40:46;;;;;;;4.47;0.77;;;13.40;84.40;;;;;;5005837;28;20126;-66
2024/04/06 02:43:11;;;;;;;5.07;1.20;;;13.40;84.10;;;;;;5007869;28;20022;-66
2024/04/06 02:45:39;;;;;;;4.13;1.70;;;13.30;84.00;;;;;;5007705;28;20508;-66
2024/04/06 02:48:05;;;;;;;3.50;1.90;;;13.40;83.10;;;;;;5007442;28;20025;-66
2024/04/06 02:50:31;;;;;;;5.05;1.30;;;13.30;83.90;;;;;;5007513;28;20030;-66
2024/04/06 02:52:57;;;;;;;6.35;1.60;;;13.30;84.00;;;;;;5008164;28;20024;-66
2024/04/06 02:55:23;;;;;;;4.90;1.20;;;13.30;84.30;;;;;;5011273;28;20026;-66
2024/04/06 02:57:48;;;;;;;3.90;1.27;;;13.40;83.60;;;;;;5010862;28;20589;-66
2024/04/06 03:00:14;;;;;;;3.93;1.50;;;13.30;83.40;;;;;;5011039;28;20034;-66
2024/04/06 03:02:40;;;;;;;3.38;1.60;;;13.20;84.20;;;;;;5011256;28;20030;-66
2024/04/06 03:05:06;;;;;;;6.60;1.47;;;13.20;84.10;;;;;;5010552;28;20092;-66
2024/04/06 03:07:31;;;;;;;4.57;1.30;;;13.20;83.60;;;;;;5007389;28;20519;-66
2024/04/06 03:09:58;;;;;;;2.53;1.00;;;13.20;84.00;;;;;;5011722;28;20566;-66
2024/04/06 03:12:23;;;;;;;3.33;1.10;;;13.30;83.20;;;;;;5011502;28;20026;-66
2024/04/06 03:14:49;;;;;;;3.07;1.27;;;13.30;83.50;;;;;;5010808;28;20091;-66
2024/04/06 03:17:15;;;;;;;4.55;1.40;;;13.40;84.00;;;;;;5011150;28;20053;-66
2024/04/06 03:19:40;;;;;;;8.37;1.40;;;13.40;84.20;;;;;;5011320;28;20482;-66
2024/04/06 03:22:06;;;;;;;2.07;1.03;;;13.30;83.70;;;;;;5009502;28;20030;-66
2024/04/06 03:24:32;;;;;;;7.22;1.65;;;13.30;83.50;;;;;;5010742;28;20511;-66
2024/04/06 03:26:57;;;;;;;5.17;2.20;;;13.10;85.00;;;;;;5010880;28;20235;-66
2024/04/06 03:29:23;;;;;;;3.93;1.40;;;13.10;84.70;;;;;;5010153;28;20030;-66
2024/04/06 03:31:49;;;;;;;4.38;1.30;;;13.20;84.10;;;;;;5010524;28;20547;-65
2024/04/06 03:34:15;;;;;;;3.30;1.20;;;13.20;83.90;;;;;;5010992;28;20124;-66
2024/04/06 03:36:40;;;;;;;4.30;1.30;;;13.20;83.90;;;;;;5010491;28;20030;-66
2024/04/06 03:39:06;;;;;;;4.10;1.37;;;13.20;83.40;;;;;;5010482;28;20088;-66
2024/04/06 03:41:33;;;;;;;4.75;1.40;;;13.30;83.00;;;;;;5007404;28;20133;-66
2024/04/06 03:43:59;;;;;;;4.13;0.80;;;13.30;83.90;;;;;;5011064;28;20132;-66
2024/04/06 03:46:28;;;;;;;5.20;1.30;;;13.40;82.20;;;;;;5010489;28;20480;-66
2024/04/06 03:48:54;;;;;;;5.50;1.23;;;13.50;81.30;;;;;;5008932;28;20033;-66
2024/04/06 03:51:20;;;;;;;2.33;1.30;;;13.50;81.70;;;;;;5010229;28;20030;-66
2024/04/06 03:53:45;;;;;;;7.37;1.60;;;13.40;81.50;;;;;;5009714;28;20766;-66
2024/04/06 03:56:11;;;;;;;5.00;1.00;;;13.30;82.70;;;;;;5010262;28;20104;-66
2024/04/06 03:58:36;;;;;;;4.90;1.07;;;13.30;83.10;;;;;;5009516;28;20061;-66
2024/04/06 04:01:02;;;;;;;4.67;1.00;;;13.40;81.30;;;;;;5010672;28;20072;-66
2024/04/06 04:03:27;;;;;;;7.37;1.43;;;13.50;81.90;;;;;;5009738;28;20030;-66
2024/04/06 04:05:53;;;;;;;2.13;1.10;;;13.40;81.60;;;;;;5010016;28;20030;-66
2024/04/06 04:08:19;;;;;;;5.23;1.27;;;13.40;81.20;;;;;;5009696;28;20650;-66
2024/04/06 04:10:44;;;;;;;6.23;1.70;;;13.20;82.60;;;;;;5008027;28;20080;-65
2024/04/06 04:13:11;;;;;;;2.30;1.20;;;13.20;83.00;;;;;;5009559;28;20026;-66
2024/04/06 04:15:40;;;;;;;;;;;13.20;83.00;;;;;;5009460;28;20029;-66
2024/04/06 04:18:07;;;;;;;4.25;1.00;;;13.10;83.00;;;;;;5009724;28;19909;-66
2024/04/06 04:20:33;;;;;;;2.78;1.10;;;13.30;82.20;;;;;;5008532;28;20750;-66
2024/04/06 04:23:00;;;;;;;2.95;1.00;;;13.30;82.20;;;;;;5008310;28;20159;-66
2024/04/06 04:25:27;;;;;;;3.28;1.30;;;13.10;83.20;;;;;;5009658;28;20030;-66
2024/04/06 04:27:57;;;;;;;2.92;1.10;;;13.30;82.00;;;;;;5009236;28;20034;-66
2024/04/06 04:30:23;;;;;;;3.72;1.20;;;13.30;81.80;;;;;;5011242;28;20034;-66
2024/04/06 04:32:49;;;;;;;4.77;1.00;;;13.40;81.10;;;;;;5008970;28;20041;-66
2024/04/06 04:35:15;;;;;;;3.53;1.23;;;13.20;81.60;;;;;;5010078;28;20038;-66
2024/04/06 04:37:41;;;;;;;2.22;1.00;;;13.20;82.70;;;;;;5009696;28;20041;-66
2024/04/06 04:40:08;;;;;;;1.83;1.05;;;13.20;81.90;;;;;;5009525;28;20100;-66
2024/04/06 04:42:35;;;;;;;5.30;1.00;;;13.30;81.30;;;;;;5013573;28;20090;-66
2024/04/06 04:45:12;;;;;;;;;;;13.30;81.30;;;;;;5009466;28;20038;-66
2024/04/06 04:47:38;;;;;;;3.40;1.00;;;13.30;81.40;;;;;;5009020;28;20598;-66
2024/04/06 04:50:04;;;;;;;2.47;1.20;;;13.10;82.70;;;;;;5003449;28;20109;-66
2024/04/06 04:52:30;;;;;;;2.00;1.05;;;13.20;82.30;;;;;;5009052;28;20029;-66
2024/04/06 04:54:56;;;;;;;4.07;1.30;;;13.30;81.60;;;;;;5009451;28;20053;-66
2024/04/06 04:57:22;;;;;;;6.78;1.25;;;13.10;83.60;;;;;;5009076;28;20030;-66
2024/04/06 04:59:48;;;;;;;6.37;1.10;;;13.10;82.40;;;;;;5009017;28;20113;-66
2024/04/06 05:02:15;;;;;;;3.90;1.10;;;13.00;82.70;;;;;;5008077;28;20072;-66
2024/04/06 05:04:40;;;;;;;3.60;1.10;;;13.10;81.80;;;;;;5003207;28;20042;-66
2024/04/06 05:07:06;;;;;;;7.50;1.40;;;13.00;82.30;;;;;;5005206;28;20042;-65
2024/04/06 05:09:31;;;;;;;5.40;1.20;;;13.10;82.00;;;;;;5007424;28;20062;-66
2024/04/06 05:11:57;;;;;;;2.13;1.20;;;13.10;81.40;;;;;;5009374;28;20408;-65
2024/04/06 05:14:23;;;;;;;1.13;0.77;;;13.10;81.30;;;;;;5008987;28;20038;-66
2024/04/06 05:16:48;;;;;;;6.30;1.07;;;13.00;82.00;;;;;;5007846;28;20053;-65
2024/04/06 05:19:14;;;;;;;4.20;1.08;;;13.00;82.70;;;;;;5008236;28;20084;-66
2024/04/06 05:21:40;;;;;;;4.00;1.50;;;13.10;81.40;;;;;;5008670;28;20033;-66
2024/04/06 05:24:05;;;;;;;2.63;1.20;;;13.00;82.20;;;;;;5006911;28;20080;-66
2024/04/06 05:26:31;;;;;;;2.03;1.10;;;13.10;81.80;;;;;;5008895;28;20121;-65
2024/04/06 05:28:57;;;;;;;5.13;1.03;;;13.20;82.30;;;;;;5008959;28;20559;-66
2024/04/06 05:31:22;;;;;;;3.63;1.10;;;13.00;82.30;;;;;;5007609;28;20026;-66
2024/04/06 05:33:48;;;;;;;7.20;1.20;;;13.00;82.00;;;;;;5008806;28;20037;-66
2024/04/06 05:36:16;;;;;;;6.13;1.27;;;13.20;81.70;;;;;;5006128;28;20042;-66
2024/04/06 05:38:42;;;;;;;3.90;1.30;;;13.20;82.30;;;;;;5008677;28;20032;-66
2024/04/06 05:41:08;;;;;;;1.52;0.82;;;13.20;82.40;;;;;;5008218;28;20121;-66
2024/04/06 05:43:33;;;;;;;2.50;1.37;;;13.30;81.40;;;;;;5009819;28;20038;-67
2024/04/06 05:46:00;;;;;;;3.87;1.33;;;13.40;82.00;;;;;;5006290;28;20048;-66
2024/04/06 05:48:27;;;;;;;6.97;1.58;;;13.50;80.70;;;;;;5008896;28;20108;-66
2024/04/06 05:50:53;;;;;;;2.33;1.10;;;13.70;80.20;;;;;;5007541;28;20034;-65
2024/04/06 05:53:19;;;;;;;3.55;1.92;;;14.30;77.90;;;;;;5007214;28;20038;-67
2024/04/06 05:55:45;;;;;;;7.03;1.40;;;15.40;76.10;;;;;;5010017;28;20038;-66
2024/04/06 05:58:12;;;;;;;2.53;1.10;;;15.60;75.40;;;;;;4999836;28;20039;-66
2024/04/06 06:00:37;;;;;;;4.15;1.27;;;15.80;72.70;;;;;;5004187;28;20026;-66
2024/04/06 06:03:03;;;;;;;2.17;1.03;;;16.50;71.70;;;;;;5007542;28;20072;-66
2024/04/06 06:05:29;;;;;;;10.60;1.67;;;16.70;71.10;;;;;;5003321;28;20045;-66
2024/04/06 06:07:55;;;;;;;3.70;1.30;;;17.10;70.80;;;;;;5002376;28;20026;-67
2024/04/06 06:10:21;;;;;;;2.55;1.20;;;16.80;69.50;;;;;;5007629;28;20029;-66
2024/04/06 06:12:46;;;;;;;1.30;0.87;;;17.10;70.50;;;;;;5007269;28;20601;-67
2024/04/06 06:15:12;;;;;;;3.40;1.00;;;17.20;69.80;;;;;;5000615;28;20120;-66
2024/04/06 06:17:37;;;;;;;6.80;1.27;;;17.20;70.10;;;;;;5006119;28;20381;-67
2024/04/06 06:20:09;;;;;;;6.67;1.03;;;17.00;69.00;;;;;;5004586;28;20033;-67
2024/04/06 06:22:35;;;;;;;2.45;0.90;;;17.40;70.40;;;;;;5005399;28;21024;-66
2024/04/06 06:25:03;;;;;;;5.43;1.10;;;17.40;70.60;;;;;;5004498;28;20156;-67
2024/04/06 06:27:30;;;;;;;4.05;1.05;;;17.00;70.50;;;;;;5004793;28;20133;-67
2024/04/06 06:29:55;;;;;;;3.03;1.33;;;17.00;68.70;;;;;;5005622;28;20081;-67
2024/04/06 06:32:21;;;;;;;4.17;0.90;;;17.50;68.10;;;;;;4997167;28;20080;-66
2024/04/06 06:34:47;;;;;;;3.15;1.05;;;17.50;68.90;;;;;;5006396;28;20034;-66
2024/04/06 06:37:13;;;;;;;4.37;1.67;;;17.30;67.90;;;;;;5007366;28;20072;-66
2024/04/06 06:39:39;;;;;;;7.68;1.40;;;17.20;67.30;;;;;;5006802;28;20538;-66
2024/04/06 06:42:07;;;;;;;3.08;1.67;;;17.40;68.70;;;;;;5005320;28;20137;-66
2024/04/06 06:44:32;;;;;;;3.15;1.23;;;17.30;69.70;;;;;;5006189;28;20156;-66
2024/04/06 06:46:58;;;;;;;5.20;0.90;;;17.40;69.90;;;;;;5007196;28;20049;-67
2024/04/06 06:49:24;;;;;;;5.60;1.17;;;17.30;69.40;;;;;;5006462;28;20030;-67
2024/04/06 06:51:51;;;;;;;3.07;1.00;;;17.10;70.00;;;;;;5004707;28;20037;-66
2024/04/06 06:54:18;;;;;;;2.72;1.02;;;16.90;68.60;;;;;;5007548;28;20038;-67
2024/04/06 06:56:43;;;;;;;3.95;1.17;;;17.00;69.70;;;;;;5008139;28;20037;-67
2024/04/06 06:59:09;;;;;;;2.10;1.07;;;16.70;69.10;;;;;;5007610;28;20030;-67
2024/04/06 07:01:34;;;;;;;3.73;1.60;;;16.80;68.70;;;;;;5008090;28;20103;-67
2024/04/06 07:04:00;;;;;;;1.93;1.23;;;16.90;70.10;;;;;;5007309;28;20399;-67
2024/04/06 07:06:26;;;;;;;4.27;1.60;;;17.00;68.60;;;;;;5007330;28;20045;-67
2024/04/06 07:08:52;;;;;;;4.43;1.15;;;17.10;70.10;;;;;;5007384;28;20044;-66
2024/04/06 07:11:18;;;;;;;3.27;1.27;;;17.00;68.70;;;;;;5004653;28;20676;-67
2024/04/06 07:13:44;;;;;;;4.23;1.37;;;17.00;69.20;;;;;;5006153;28;20127;-64
2024/04/06 07:16:13;;;;;;;3.58;1.58;;;17.00;69.00;;;;;;5006977;28;20037;-66
2024/04/06 07:18:40;;;;;;;2.20;0.90;;;17.00;68.20;;;;;;5008291;28;20041;-65
2024/04/06 07:21:11;;;;;;;6.00;1.13;;;17.10;70.90;;;;;;5008074;28;20037;-66
2024/04/06 07:23:37;;;;;;;2.22;0.80;;;17.00;68.10;;;;;;5008007;28;20507;-65
2024/04/06 07:26:04;;;;;;;1.88;1.10;;;17.10;69.00;;;;;;5007626;28;20509;-64
2024/04/06 07:28:31;;;;;;;2.78;1.08;;;17.40;67.60;;;;;;5007737;28;20057;-64
2024/04/06 07:30:56;;;;;;;3.58;1.40;;;17.40;67.00;;;;;;5008073;28;20499;-65
2024/04/06 07:33:22;;;;;;;3.83;1.27;;;17.70;68.30;;;;;;5004529;28;20112;-64
2024/04/06 07:35:48;;;;;;;4.27;1.23;;;18.00;66.70;;;;;;5006971;28;20034;-63
2024/04/06 07:38:14;;;;;;;4.43;1.15;;;18.70;65.60;;;;;;5005517;28;20061;-67
2024/04/06 07:40:40;;;;;;;5.45;1.35;;;18.50;65.70;;;;;;5010063;28;20403;-67
2024/04/06 07:43:06;;;;;;;4.23;1.20;;;18.70;64.90;;;;;;5010151;28;20030;-67
2024/04/06 07:45:31;;;;;;;3.03;1.20;;;18.90;65.10;;;;;;5010465;28;20315;-68
2024/04/06 07:47:57;;;;;;;3.00;1.33;;;18.90;64.20;;;;;;5009594;28;20052;-66
2024/04/06 07:50:23;;;;;;;4.53;1.35;;;19.00;63.60;;;;;;5009697;28;20388;-67
2024/04/06 07:52:52;;;;;;;2.22;1.20;;;19.00;63.40;;;;;;5010243;28;20041;-65
2024/04/06 07:55:18;;;;;;;1.77;1.08;;;19.00;64.30;;;;;;5010363;28;20045;-65
2024/04/06 07:57:44;;;;;;;4.38;1.50;;;19.50;63.70;;;;;;5010410;28;20030;-66
2024/04/06 08:00:13;;;;;;;1.83;1.00;;;19.60;62.00;;;;;;5009883;28;20049;-66
2024/04/06 08:02:41;;;;;;;2.92;1.30;;;20.30;62.00;;;;;;5009064;28;20060;-67
2024/04/06 08:05:08;;;;;;;4.60;1.40;;;20.80;63.60;;;;;;5009563;28;20496;-67
2024/04/06 08:07:34;;;;;;;1.75;1.10;;;20.80;62.30;;;;;;5004666;28;20038;-68
2024/04/06 08:10:01;;;;;;;2.22;1.15;;;21.20;61.10;;;;;;5009741;28;20042;-68
2024/04/06 08:12:27;;;;;;;5.28;1.42;;;21.30;61.50;;;;;;5009692;28;20022;-68
2024/04/06 08:14:53;;;;;;;;;;;20.90;60.90;;;;;;5012439;28;22005;-68
2024/04/06 08:17:19;;;;;;;5.70;1.50;;;20.30;62.60;;;;;;5010230;28;19921;-65
2024/04/06 08:19:45;;;;;;;2.28;1.27;;;20.40;61.10;;;;;;5008202;28;20114;-65
2024/04/06 08:22:11;;;;;;;2.13;1.10;;;20.70;62.10;;;;;;5008432;28;20680;-65
2024/04/06 08:24:39;;;;;;;2.90;1.40;;;20.90;62.20;;;;;;5008819;28;20485;-65
2024/04/06 08:27:05;;;;;;;4.20;1.17;;;21.00;61.80;;;;;;5009739;28;20069;-65
2024/04/06 08:29:31;;;;;;;3.58;1.00;;;20.70;61.00;;;;;;5008570;28;20026;-66
2024/04/06 08:31:57;;;;;;;3.80;1.40;;;21.10;62.80;;;;;;5007171;28;20033;-65
2024/04/06 08:34:22;;;;;;;8.05;1.50;;;21.50;60.00;;;;;;5009272;28;20033;-65
2024/04/06 08:36:48;;;;;;;3.87;1.10;;;22.30;59.00;;;;;;5007837;28;20042;-65
2024/04/06 08:39:13;;;;;;;3.93;1.50;;;22.40;57.10;;;;;;5009702;28;20029;-65
2024/04/06 08:41:45;;;;;;;3.63;1.40;;;22.70;56.70;;;;;;5008557;28;20080;-65
2024/04/06 08:44:16;;;;;;;3.08;1.60;;;24.30;56.70;;;;;;5010069;28;20423;-65
2024/04/06 08:46:42;;;;;;;3.08;1.30;;;26.90;52.10;;;;;;5008612;28;20053;-65
2024/04/06 08:49:12;;;;;;;4.53;1.75;;;28.40;52.30;;;;;;5008728;28;20045;-65
2024/04/06 08:51:40;;;;;;;3.72;1.40;;;28.90;48.90;;;;;;5008870;28;20030;-65
2024/04/06 08:54:05;;;;;;;4.05;1.48;;;29.10;48.60;;;;;;5008603;28;20132;-65
2024/04/06 08:56:31;;;;;;;2.55;1.30;;;28.30;48.40;;;;;;5008350;28;20550;-66
2024/04/06 08:58:57;;;;;;;4.25;1.67;;;30.00;49.70;;;;;;5008390;28;20046;-65
2024/04/06 09:01:22;;;;;;;4.47;1.70;;;28.40;50.20;;;;;;5008593;28;20038;-66
2024/04/06 09:03:48;;;;;;;6.15;1.23;;;27.50;50.20;;;;;;5006028;28;20044;-65
2024/04/06 09:06:18;;;;;;;6.82;1.55;;;26.30;49.80;;;;;;5002084;28;20492;-65
2024/04/06 09:08:44;;;;;;;4.78;1.10;;;26.30;51.70;;;;;;5007508;28;20112;-66
2024/04/06 09:11:12;;;;;;;;;;;27.50;51.10;;;;;;5009177;28;20026;-66
2024/04/06 09:13:39;;;;;;;12.27;2.00;;;29.70;50.30;;;;;;5009775;28;19995;-66
2024/04/06 09:16:09;;;;;;;3.70;1.50;;;29.00;47.30;;;;;;5003463;28;20117;-65
2024/04/06 09:18:36;;;;;;;4.43;1.38;;;29.00;48.40;;;;;;5007301;28;20040;-66
2024/04/06 09:21:02;;;;;;;4.32;1.63;;;29.40;49.70;;;;;;5000354;28;20022;-66
2024/04/06 09:23:28;;;;;;;2.40;1.40;;;29.50;48.50;;;;;;5000057;28;20030;-66
2024/04/06 09:26:01;;;;;;;7.65;1.60;;;30.00;47.50;;;;;;5006924;28;20037;-66
2024/04/06 09:28:28;;;;;;;10.25;1.45;;;29.70;46.90;;;;;;5007864;28;20104;-67
2024/04/06 09:30:58;;;;;;;3.40;1.38;;;29.70;47.70;;;;;;5005107;28;20030;-66
2024/04/06 09:33:27;;;;;;;6.22;1.60;;;31.20;47.90;;;;;;5002175;28;20022;-67
2024/04/06 09:35:53;;;;;;;3.58;1.30;;;31.20;47.70;;;;;;5009548;28;20547;-66
2024/04/06 09:38:19;;;;;;;3.33;1.40;;;30.70;46.30;;;;;;5009648;28;20021;-66
2024/04/06 09:40:47;;;;;;;2.35;1.35;;;31.10;46.20;;;;;;5008256;28;20458;-66
2024/04/06 09:43:16;;;;;;;2.42;1.35;;;31.60;45.80;;;;;;5008716;28;20053;-66
2024/04/06 09:45:43;;;;;;;4.13;1.48;;;30.40;47.30;;;;;;5008026;28;20048;-67
2024/04/06 09:48:10;;;;;;;6.97;1.80;;;30.00;47.90;;;;;;5008944;28;20033;-66
2024/04/06 09:50:38;;;;;;;7.28;2.10;;;30.40;46.10;;;;;;5003173;28;20478;-67
2024/04/06 09:53:08;;;;;;;4.35;1.42;;;29.60;46.90;;;;;;5007476;28;20422;-67
2024/04/06 09:55:39;;;;;;;9.00;1.60;;;29.50;45.90;;;;;;5009065;28;20038;-66
2024/04/06 09:58:06;;;;;;;4.25;1.13;;;28.90;45.40;;;;;;5006295;28;20040;-66
2024/04/06 10:00:32;;;;;;;3.63;1.63;;;30.50;47.60;;;;;;5008129;28;20533;-67
2024/04/06 10:03:00;;;;;;;2.53;1.60;;;30.80;45.80;;;;;;5008581;28;20077;-67
2024/04/06 10:05:44;;;;;;;3.08;1.85;;;30.20;46.30;;;;;;5008753;28;20030;-66
2024/04/06 10:08:11;;;;;;;4.82;1.77;;;30.20;46.90;;;;;;5008229;28;20365;-66
2024/04/06 10:10:52;;;;;;;2.20;1.48;;;30.10;46.70;;;;;;5008111;28;20060;-67
2024/04/06 10:13:23;;;;;;;6.70;1.45;;;30.20;47.40;;;;;;5007964;28;20057;-67
2024/04/06 10:15:51;;;;;;;6.78;1.58;;;30.00;47.00;;;;;;5007925;28;20034;-67
2024/04/06 10:18:16;;;;;;;2.67;1.10;;;29.10;46.30;;;;;;5008254;28;20030;-67
2024/04/06 10:20:43;;;;;;;4.55;1.50;;;29.10;48.50;;;;;;5008684;28;20500;-66
2024/04/06 10:23:13;;;;;;;2.58;1.20;;;28.60;48.50;;;;;;5008367;28;20117;-66
2024/04/06 10:25:39;;;;;;;3.88;1.40;;;28.70;46.40;;;;;;5008296;28;20041;-66
2024/04/06 10:28:07;;;;;;;3.80;1.40;;;28.20;47.40;;;;;;5008341;28;20034;-66
2024/04/06 10:30:34;;;;;;;4.70;1.23;;;28.30;49.00;;;;;;5008050;28;20034;-66
2024/04/06 10:33:00;;;;;;;2.78;1.30;;;28.10;47.50;;;;;;5008481;28;20030;-67
2024/04/06 10:35:26;;;;;;;3.75;1.30;;;27.60;47.40;;;;;;5007127;28;20046;-66
2024/04/06 10:37:52;;;;;;;5.43;1.83;;;27.60;49.00;;;;;;5007901;28;20026;-66
2024/04/06 10:40:22;;;;;;;6.22;1.27;;;27.00;47.60;;;;;;5008332;28;20808;-66
2024/04/06 10:42:50;;;;;;;5.38;1.33;;;27.60;48.00;;;;;;5006697;28;20112;-66
2024/04/06 10:45:16;;;;;;;3.92;1.20;;;27.00;47.80;;;;;;5006361;28;20061;-67
2024/04/06 10:47:42;;;;;;;;;;;26.40;47.60;;;;;;5008247;28;20492;-66
2024/04/06 10:50:09;;;;;;;3.17;1.10;;;25.70;49.60;;;;;;5005961;28;20385;-67
2024/04/06 10:52:35;;;;;;;;;;;25.90;50.30;;;;;;5005303;28;20272;-66
2024/04/06 10:55:09;;;;;;;5.68;1.13;;;26.10;48.00;;;;;;5007798;28;19914;-66
2024/04/06 10:57:36;;;;;;;3.17;0.90;;;25.50;50.30;;;;;;5007231;28;20034;-66
2024/04/06 11:00:04;;;;;;;1.73;0.88;;;25.70;49.30;;;;;;5003198;28;20049;-66
2024/04/06 11:02:31;;;;;;;3.22;1.08;;;25.10;48.40;;;;;;5007267;28;20033;-66
2024/04/06 11:04:57;;;;;;;3.95;1.00;;;24.70;48.20;;;;;;5007393;28;20026;-66
2024/04/06 11:07:22;;;;;;;4.03;0.80;;;24.60;51.80;;;;;;5007769;28;20056;-65
2024/04/06 11:09:48;;;;;;;2.78;0.77;;;24.70;49.20;;;;;;5006405;28;20034;-66
2024/04/06 11:12:14;;;;;;;1.58;0.93;;;24.70;52.30;;;;;;5001910;28;20026;-66
2024/04/06 11:14:40;;;;;;;3.38;1.13;;;24.80;51.80;;;;;;5009693;28;20030;-65
2024/04/06 11:17:06;;;;;;;4.00;1.15;;;24.70;53.40;;;;;;5011442;28;20444;-65
2024/04/06 11:19:32;;;;;;;;;;;24.50;52.00;;;;;;5010042;28;20026;-66
2024/04/06 11:22:04;;;;;;;8.32;1.40;;;24.30;51.70;;;;;;5011069;28;19917;-66
2024/04/06 11:24:31;;;;;;;6.10;0.95;;;24.40;51.90;;;;;;5010921;28;20065;-66
2024/04/06 11:27:06;;;;;;;;;;;24.30;52.70;;;;;;5009732;28;20047;-66
2024/04/06 11:29:32;;;;;;;4.22;0.70;;;24.30;51.40;;;;;;5011183;28;20290;-66
2024/04/06 11:31:58;;;;;;;5.07;0.75;;;24.10;51.40;;;;;;5009805;28;20026;-66
2024/04/06 11:34:24;;;;;;;4.68;1.30;;;24.30;52.00;;;;;;5007954;28;20044;-66
2024/04/06 11:36:50;;;;;;;2.33;0.98;;;24.30;52.20;;;;;;5010629;28;20030;-66
2024/04/06 11:39:16;;;;;;;6.55;1.42;;;24.30;53.30;;;;;;5010469;28;20065;-66
2024/04/06 11:41:41;;;;;;;9.45;1.92;;;24.30;53.20;;;;;;5010804;28;20233;-66
2024/04/06 11:44:07;;;;;;;5.60;1.30;;;24.10;53.10;;;;;;5010904;28;20117;-66
2024/04/06 11:46:34;;;;;;;4.00;1.43;;;24.20;53.80;;;;;;5010267;28;20291;-66
2024/04/06 11:49:03;;;;;;;2.63;0.80;;;24.10;52.10;;;;;;5010207;28;20030;-67
2024/04/06 11:51:29;;;;;;;3.83;0.95;;;24.10;53.90;;;;;;5009553;28;20022;-66
2024/04/06 11:53:55;;;;;;;1.95;0.80;;;24.20;53.70;;;;;;5010739;28;20404;-67
2024/04/06 11:56:20;;;;;;;4.20;1.30;;;24.20;54.10;;;;;;5011135;28;20036;-66
2024/04/06 11:58:47;;;;;;;7.82;1.55;;;24.20;54.10;;;;;;4999766;28;20026;-64
2024/04/06 12:01:12;;;;;;;8.73;1.27;;;24.10;54.00;;;;;;5009015;28;20048;-65
2024/04/06 12:03:38;;;;;;;2.33;1.00;;;23.80;54.20;;;;;;5009228;28;20030;-64
2024/04/06 12:06:04;;;;;;;6.50;0.90;;;23.90;54.20;;;;;;5009751;28;20281;-65
2024/04/06 12:08:29;;;;;;;3.67;1.48;;;24.00;54.50;;;;;;5009963;28;20117;-65
2024/04/06 12:10:55;;;;;;;5.45;0.95;;;23.90;54.60;;;;;;5010901;28;20042;-64
2024/04/06 12:13:21;;;;;;;4.20;0.80;;;23.90;54.80;;;;;;5010523;28;20736;-65
2024/04/06 12:15:47;;;;;;;1.60;0.90;;;23.80;55.30;;;;;;5010391;28;20161;-65
2024/04/06 12:18:12;;;;;;;3.58;0.75;;;23.80;54.70;;;;;;5011084;28;20064;-64
2024/04/06 12:20:39;;;;;;;2.60;1.20;;;23.90;55.50;;;;;;5010136;28;20125;-65
2024/04/06 12:23:04;;;;;;;;;;;23.90;55.00;;;;;;5010969;28;20026;-64
2024/04/06 12:25:30;;;;;;;6.10;1.02;;;23.70;53.20;;;;;;5009492;28;19925;-65
2024/04/06 12:27:56;;;;;;;6.05;0.85;;;23.90;55.40;;;;;;5009211;28;20562;-65
2024/04/06 12:30:21;;;;;;;4.30;0.90;;;23.90;54.90;;;;;;5010340;28;20034;-64
2024/04/06 12:32:47;;;;;;;3.23;1.10;;;24.00;56.10;;;;;;5010132;28;20030;-64
2024/04/06 12:35:13;;;;;;;5.10;0.90;;;24.00;54.50;;;;;;5009652;28;20272;-64
2024/04/06 12:37:38;;;;;;;6.00;1.20;;;24.00;56.10;;;;;;5007590;28;20160;-64
2024/04/06 12:40:04;;;;;;;3.90;1.20;;;24.00;55.50;;;;;;5010060;28;20038;-64
2024/04/06 12:42:30;;;;;;;8.30;1.23;;;23.80;56.00;;;;;;5006851;28;20280;-64
2024/04/06 12:44:56;;;;;;;2.57;1.23;;;23.80;57.50;;;;;;5009630;28;20616;-64